Time;durP1;ratioP1;P1;durP2;ratioP2;P2;SDS_P1;SDS_P2;PMS_P1;PMS_P2;Temp;Humidity;BMP_temperature;BMP_pressure;BME280_temperature;BME280_humidity;BME280_pressure;Samples;Min_cycle;Max_cycle;Signal;HPM_P1;HPM_P2
2022/02/22 00:01:32;;;;;;;29.97;4.37;;;;;;;3.42;100.00;99214.00;7396520;19;20402;-52
2022/02/22 00:04:02;;;;;;;26.13;4.83;;;;;;;3.35;100.00;99218.81;7392366;19;20466;-50
2022/02/22 00:06:31;;;;;;;26.87;3.93;;;;;;;3.28;100.00;99214.25;7396295;19;20400;-54
2022/02/22 00:09:01;;;;;;;39.30;5.30;;;;;;;3.34;100.00;99204.31;7393033;19;20443;-51
2022/02/22 00:11:30;;;;;;;33.93;4.47;;;;;;;3.32;100.00;99203.41;7395844;19;20384;-49
2022/02/22 00:14:00;;;;;;;41.67;6.00;;;;;;;3.31;100.00;99201.66;7388779;19;20439;-49
2022/02/22 00:16:32;;;;;;;35.97;5.90;;;;;;;3.28;100.00;99196.41;7396582;19;20394;-50
2022/02/22 00:19:01;;;;;;;37.83;4.90;;;;;;;3.25;100.00;99188.63;7391696;19;20531;-50
2022/02/22 00:21:31;;;;;;;29.70;4.80;;;;;;;3.24;100.00;99174.13;7396295;19;20390;-48
2022/02/22 00:24:00;;;;;;;27.70;5.53;;;;;;;3.27;100.00;99165.75;7390848;19;20435;-51
2022/02/22 00:26:30;;;;;;;23.10;3.50;;;;;;;3.16;100.00;99163.59;7395883;19;20391;-48
2022/02/22 00:28:59;;;;;;;19.97;3.67;;;;;;;3.15;100.00;99143.13;7389267;19;20457;-48
2022/02/22 00:31:31;;;;;;;21.57;4.13;;;;;;;3.25;100.00;99198.81;7392720;19;20395;-48
2022/02/22 00:34:01;;;;;;;23.50;4.80;;;;;;;3.36;100.00;99225.69;7386657;19;20425;-48
2022/02/22 00:36:30;;;;;;;20.80;2.80;;;;;;;3.15;100.00;99275.66;7392277;19;20390;-48
2022/02/22 00:39:00;;;;;;;19.00;3.20;;;;;;;3.20;100.00;99302.25;7387808;19;20406;-51
2022/02/22 00:41:29;;;;;;;14.40;2.90;;;;;;;3.21;100.00;99332.03;7398828;19;20388;-51
2022/02/22 00:43:59;;;;;;;26.03;5.17;;;;;;;3.20;100.00;99348.13;7393396;19;20418;-49
2022/02/22 00:46:31;;;;;;;27.80;3.87;;;;;;;3.14;100.00;99375.88;7399233;19;20395;-51
2022/02/22 00:49:01;;;;;;;29.00;4.33;;;;;;;3.12;100.00;99380.88;7392822;19;20511;-48
2022/02/22 00:51:30;;;;;;;16.93;3.50;;;;;;;3.13;100.00;99394.50;7401168;19;20395;-53
2022/02/22 00:54:00;;;;;;;28.90;4.27;;;;;;;3.21;100.00;99403.41;7394482;19;20407;-49
2022/02/22 00:56:29;;;;;;;22.47;4.40;;;;;;;3.18;100.00;99418.56;7399254;19;20400;-51
2022/02/22 00:58:59;;;;;;;23.90;3.63;;;;;;;3.20;100.00;99427.16;7395551;19;20414;-51
2022/02/22 01:01:28;;;;;;;34.80;4.40;;;;;;;3.12;100.00;99431.00;7398729;19;20380;-54
2022/02/22 01:04:00;;;;;;;29.13;3.87;;;;;;;3.13;100.00;99458.22;7393690;19;20422;-50
2022/02/22 01:06:31;;;;;;;35.30;4.20;;;;;;;3.13;100.00;99466.75;7399000;19;20920;-50
2022/02/22 01:09:04;;;;;;;23.53;3.73;;;;;;;3.07;100.00;99492.81;7394326;19;20415;-54
2022/02/22 01:11:33;;;;;;;29.53;4.20;;;;;;;3.08;100.00;99494.53;7398708;19;20387;-49
2022/02/22 01:14:03;;;;;;;22.63;3.90;;;;;;;2.99;100.00;99529.75;7392377;19;20872;-49
2022/02/22 01:16:33;;;;;;;28.43;3.60;;;;;;;3.00;100.00;99544.25;7398721;19;20387;-51
2022/02/22 01:19:05;;;;;;;22.93;3.87;;;;;;;2.96;100.00;99557.63;7394691;19;20422;-54
2022/02/22 01:21:35;;;;;;;24.07;3.67;;;;;;;2.88;100.00;99567.44;7398335;19;20390;-52
2022/02/22 01:24:06;;;;;;;32.30;3.47;;;;;;;2.86;100.00;99591.06;7395917;19;20442;-54
2022/02/22 01:26:36;;;;;;;29.33;4.20;;;;;;;2.96;100.00;99608.59;7397976;19;20736;-52
2022/02/22 01:29:06;;;;;;;22.07;3.60;;;;;;;2.88;100.00;99632.78;7391609;19;20429;-50
2022/02/22 01:31:36;;;;;;;21.23;2.90;;;;;;;2.91;100.00;99638.03;7398248;19;20403;-53
2022/02/22 01:34:08;;;;;;;20.80;3.13;;;;;;;2.91;100.00;99679.69;7392149;19;20429;-51
2022/02/22 01:36:38;;;;;;;27.60;4.40;;;;;;;2.94;100.00;99684.97;7397574;19;20463;-49
2022/02/22 01:39:07;;;;;;;22.00;4.13;;;;;;;3.03;100.00;99704.09;7393790;19;20564;-52
2022/02/22 01:41:41;;;;;;;21.40;3.73;;;;;;;3.03;100.00;99702.41;7397697;19;20482;-52
2022/02/22 01:44:10;;;;;;;16.37;3.27;;;;;;;3.13;100.00;99697.84;7394520;19;20603;-49
2022/02/22 01:46:40;;;;;;;17.67;3.80;;;;;;;3.16;100.00;99716.72;7397477;19;20455;-52
2022/02/22 01:49:12;;;;;;;22.77;4.87;;;;;;;3.15;100.00;99725.19;7390916;19;20435;-49
2022/02/22 01:51:42;;;;;;;22.30;5.20;;;;;;;3.25;100.00;99731.66;7396970;19;20800;-53
2022/02/22 01:54:11;;;;;;;24.90;4.20;;;;;;;3.20;100.00;99735.63;7389561;19;20415;-52
2022/02/22 01:56:42;;;;;;;25.23;4.00;;;;;;;3.27;100.00;99740.25;7397314;19;20751;-54
2022/02/22 01:59:13;;;;;;;22.00;3.63;;;;;;;3.31;100.00;99748.94;7393635;19;20478;-52
2022/02/22 02:01:43;;;;;;;26.30;4.30;;;;;;;3.33;100.00;99755.88;7396759;19;20422;-51
2022/02/22 02:04:16;;;;;;;31.70;4.63;;;;;;;3.43;100.00;99753.84;7391097;19;20415;-51
2022/02/22 02:06:46;;;;;;;22.73;3.67;;;;;;;3.36;100.00;99747.53;7397026;19;20407;-55
2022/02/22 02:09:15;;;;;;;35.87;4.93;;;;;;;3.46;100.00;99769.31;7386471;19;20455;-52
2022/02/22 02:11:49;;;;;;;25.00;4.10;;;;;;;3.48;100.00;99780.47;7396795;19;20391;-52
2022/02/22 02:14:19;;;;;;;41.37;5.53;;;;;;;3.62;100.00;99791.44;7394647;19;20428;-54
2022/02/22 02:16:49;;;;;;;32.90;4.20;;;;;;;3.54;100.00;99811.41;7396547;19;20387;-52
2022/02/22 02:19:22;;;;;;;40.73;3.90;;;;;;;3.57;100.00;99826.00;7395182;19;20482;-52
2022/02/22 02:21:52;;;;;;;30.73;4.67;;;;;;;3.60;100.00;99832.16;7396264;19;20773;-54
2022/02/22 02:24:27;;;;;;;39.80;5.07;;;;;;;3.68;100.00;99836.84;7394293;19;20407;-55
2022/02/22 02:26:57;;;;;;;32.93;4.90;;;;;;;3.72;100.00;99841.28;7393143;19;20387;-53
2022/02/22 02:29:28;;;;;;;30.87;5.03;;;;;;;3.63;100.00;99865.50;7393202;19;20941;-51
2022/02/22 02:32:00;;;;;;;33.43;5.00;;;;;;;3.31;100.00;99849.28;7391958;19;20392;-52
2022/02/22 02:34:31;;;;;;;34.23;5.90;;;;;;;3.06;100.00;99819.84;7393857;19;20942;-50
2022/02/22 02:37:00;;;;;;;32.93;6.37;;;;;;;3.06;100.00;99791.81;7392250;19;20392;-50
2022/02/22 02:39:32;;;;;;;35.63;5.73;;;;;;;3.01;100.00;99771.94;7393657;19;20395;-49
2022/02/22 02:42:02;;;;;;;44.03;5.93;;;;;;;2.94;100.00;99756.31;7392829;19;20740;-50
2022/02/22 02:44:31;;;;;;;47.43;6.67;;;;;;;2.96;100.00;99744.53;7398249;19;20421;-52
2022/02/22 02:47:01;;;;;;;34.27;5.30;;;;;;;3.02;100.00;99756.72;7392623;19;20380;-49
2022/02/22 02:49:30;;;;;;;38.60;5.40;;;;;;;3.04;100.00;99757.72;7397182;19;20391;-50
2022/02/22 02:52:00;;;;;;;34.03;4.80;;;;;;;3.04;100.00;99767.91;7392367;19;20383;-49
2022/02/22 02:54:29;;;;;;;21.33;3.63;;;;;;;3.04;100.00;99767.91;7393140;19;20415;-50
2022/02/22 02:57:01;;;;;;;49.87;5.00;;;;;;;3.08;100.00;99774.91;7391822;19;20401;-50
2022/02/22 02:59:31;;;;;;;26.93;4.73;;;;;;;3.04;100.00;99767.03;7394088;19;20387;-49
2022/02/22 03:02:00;;;;;;;26.07;4.23;;;;;;;3.10;100.00;99803.94;7391973;19;20390;-48
2022/02/22 03:04:30;;;;;;;22.93;4.40;;;;;;;3.12;100.00;99814.22;7390902;19;20969;-54
2022/02/22 03:07:00;;;;;;;23.83;4.40;;;;;;;3.11;100.00;99825.19;7391902;19;20395;-48
2022/02/22 03:09:31;;;;;;;23.73;4.90;;;;;;;3.10;100.00;99848.94;7392748;19;20728;-48
2022/02/22 03:12:03;;;;;;;38.73;4.70;;;;;;;3.07;100.00;99838.56;7396021;19;20388;-48
2022/02/22 03:14:32;;;;;;;22.17;3.47;;;;;;;3.07;100.00;99859.84;7393129;19;20774;-51
2022/02/22 03:17:02;;;;;;;28.67;5.27;;;;;;;3.10;100.00;99875.31;7391478;19;20384;-51
2022/02/22 03:19:34;;;;;;;27.70;4.40;;;;;;;3.07;100.00;99880.22;7393469;19;20412;-48
2022/02/22 03:22:03;;;;;;;35.07;4.50;;;;;;;2.99;100.00;99881.47;7391124;19;20485;-47
2022/02/22 03:24:35;;;;;;;26.03;4.20;;;;;;;3.06;100.00;99883.56;7392571;19;20419;-55
2022/02/22 03:27:07;;;;;;;28.13;4.40;;;;;;;3.08;100.00;99896.41;7391578;19;20391;-48
2022/02/22 03:29:37;;;;;;;22.73;4.10;;;;;;;3.11;100.00;99896.56;7394895;19;20414;-50
2022/02/22 03:32:07;;;;;;;17.90;4.50;;;;;;;3.13;100.00;99910.28;7391220;19;20799;-51
2022/02/22 03:34:38;;;;;;;10.60;3.03;;;;;;;3.06;100.00;99906.50;7392744;19;20436;-49
2022/02/22 03:37:10;;;;;;;35.20;4.77;;;;;;;3.05;100.00;99889.47;7391017;19;20394;-54
2022/02/22 03:39:39;;;;;;;30.27;4.50;;;;;;;3.00;100.00;99884.88;7393174;19;20388;-48
2022/02/22 03:42:11;;;;;;;26.00;4.30;;;;;;;2.89;100.00;99864.75;7389225;19;20388;-50
2022/02/22 03:44:41;;;;;;;31.03;4.37;;;;;;;2.90;100.00;99856.31;7392540;19;20762;-52
2022/02/22 03:47:10;;;;;;;36.37;4.73;;;;;;;2.97;100.00;99855.88;7394198;19;20391;-51
2022/02/22 03:49:41;;;;;;;29.97;5.07;;;;;;;3.03;100.00;99878.28;7391473;19;20380;-49
2022/02/22 03:52:11;;;;;;;18.47;3.90;;;;;;;3.04;100.00;99890.25;7393584;19;20837;-52
2022/02/22 03:54:43;;;;;;;27.00;4.97;;;;;;;3.06;100.00;99901.41;7392084;19;20435;-53
2022/02/22 03:57:15;;;;;;;31.57;4.40;;;;;;;3.04;100.00;99905.56;7389584;19;20426;-49
2022/02/22 03:59:44;;;;;;;29.13;4.83;;;;;;;3.06;100.00;99903.97;7392630;19;20395;-50
2022/02/22 04:02:14;;;;;;;38.33;4.50;;;;;;;3.07;100.00;99915.03;7389345;19;20425;-55
2022/02/22 04:04:45;;;;;;;33.53;4.80;;;;;;;3.09;100.00;99916.00;7391838;19;20419;-51
2022/02/22 04:07:15;;;;;;;41.03;5.97;;;;;;;3.09;100.00;99916.88;7389647;19;20414;-50
2022/02/22 04:09:47;;;;;;;31.17;6.07;;;;;;;3.08;100.00;99915.13;7391659;19;20395;-50
2022/02/22 04:12:24;;;;;;;25.57;4.77;;;;;;;3.06;100.00;99913.25;7389403;19;20418;-51
2022/02/22 04:14:54;;;;;;;21.80;3.63;;;;;;;3.10;100.00;99905.91;7393282;19;20435;-48
2022/02/22 04:17:23;;;;;;;31.57;5.73;;;;;;;3.10;100.00;99907.56;7397118;19;20944;-52
2022/02/22 04:19:53;;;;;;;21.43;3.53;;;;;;;3.07;100.00;99915.03;7399732;19;20388;-50
2022/02/22 04:22:22;;;;;;;25.30;4.50;;;;;;;3.05;100.00;99921.72;7396401;19;20425;-52
2022/02/22 04:24:53;;;;;;;36.07;4.60;;;;;;;3.12;100.00;99928.06;7397841;19;20421;-52
2022/02/22 04:27:25;;;;;;;23.50;3.60;;;;;;;3.13;100.00;99925.56;7396478;19;20433;-52
2022/02/22 04:29:54;;;;;;;29.87;4.20;;;;;;;3.15;100.00;99949.50;7398311;19;20390;-52
2022/02/22 04:32:24;;;;;;;42.10;5.77;;;;;;;3.16;100.00;99955.47;7396027;19;20951;-49
2022/02/22 04:34:53;;;;;;;25.53;3.80;;;;;;;3.17;100.00;99962.34;7397676;19;20419;-52
2022/02/22 04:37:23;;;;;;;13.40;2.93;;;;;;;3.10;100.00;99978.94;7396477;19;20418;-51
2022/02/22 04:39:55;;;;;;;23.50;3.83;;;;;;;3.11;100.00;99988.34;7399503;19;20732;-49
2022/02/22 04:42:27;;;;;;;10.57;1.90;;;;;;;3.05;100.00;100009.25;7395332;19;20418;-50
2022/02/22 04:44:57;;;;;;;12.07;1.83;;;;;;;2.97;100.00;100019.00;7397366;19;20407;-47
2022/02/22 04:47:26;;;;;;;14.97;2.20;;;;;;;2.95;100.00;100017.13;7397110;19;20439;-50
2022/02/22 04:49:56;;;;;;;7.17;1.33;;;;;;;2.92;100.00;100029.69;7397598;19;20390;-51
2022/02/22 04:52:25;;;;;;;11.27;2.20;;;;;;;2.86;100.00;100039.53;7395761;19;20399;-54
2022/02/22 04:54:55;;;;;;;15.43;2.43;;;;;;;2.87;100.00;100037.03;7397234;19;20411;-53
2022/02/22 04:57:27;;;;;;;7.00;1.40;;;;;;;2.86;100.00;100032.75;7395585;19;20418;-48
2022/02/22 04:59:56;;;;;;;10.90;1.80;;;;;;;2.86;100.00;100031.88;7398861;19;20387;-49
2022/02/22 05:02:26;;;;;;;13.90;2.63;;;;;;;2.91;100.00;100038.09;7393533;19;20407;-52
2022/02/22 05:04:55;;;;;;;12.07;2.60;;;;;;;2.87;100.00;100033.63;7396872;19;20411;-48
2022/02/22 05:07:25;;;;;;;14.93;2.97;;;;;;;2.83;100.00;100042.75;7395359;19;20419;-49
2022/02/22 05:09:54;;;;;;;16.23;2.80;;;;;;;2.83;100.00;100033.44;7397146;19;20395;-53
2022/02/22 05:12:26;;;;;;;16.13;2.63;;;;;;;2.97;100.00;100021.53;7393760;19;20422;-52
2022/02/22 05:14:56;;;;;;;16.60;2.70;;;;;;;2.99;100.00;100010.56;7396542;19;20418;-51
2022/02/22 05:17:25;;;;;;;11.80;2.47;;;;;;;2.95;100.00;100027.31;7397363;19;20426;-48
2022/02/22 05:19:55;;;;;;;18.17;3.67;;;;;;;2.97;100.00;100020.66;7397967;19;20402;-48
2022/02/22 05:22:24;;;;;;;24.53;3.93;;;;;;;2.99;100.00;100019.09;7393789;19;20426;-48
2022/02/22 05:24:53;;;;;;;30.93;3.63;;;;;;;3.06;100.00;100011.03;7396402;19;20946;-50
2022/02/22 05:27:23;;;;;;;14.93;3.10;;;;;;;2.98;100.00;100007.13;7391639;19;20411;-53
2022/02/22 05:29:55;;;;;;;22.80;3.77;;;;;;;2.93;100.00;99994.09;7396854;19;20394;-50
2022/02/22 05:32:24;;;;;;;16.30;3.00;;;;;;;2.72;100.00;99988.56;7392934;19;20411;-51
2022/02/22 05:34:54;;;;;;;22.17;3.63;;;;;;;2.72;100.00;99993.66;7396034;19;20754;-51
2022/02/22 05:37:23;;;;;;;19.03;3.67;;;;;;;2.70;100.00;99985.06;7393069;19;20440;-53
2022/02/22 05:39:55;;;;;;;21.27;3.60;;;;;;;2.60;100.00;99991.25;7402091;19;20799;-49
2022/02/22 05:42:25;;;;;;;32.13;3.60;;;;;;;2.62;100.00;99982.03;7389997;19;20426;-50
2022/02/22 05:44:57;;;;;;;27.40;3.70;;;;;;;2.68;100.00;99982.41;7395736;19;20428;-50
2022/02/22 05:47:27;;;;;;;22.30;4.10;;;;;;;2.68;100.00;99986.66;7391709;19;21115;-52
2022/02/22 05:49:56;;;;;;;17.30;2.87;;;;;;;2.69;100.00;99986.75;7399264;19;20420;-49
2022/02/22 05:52:26;;;;;;;19.07;3.50;;;;;;;2.70;100.00;100005.44;7394457;19;20417;-53
2022/02/22 05:54:55;;;;;;;25.20;4.03;;;;;;;2.67;100.00;100001.03;7395384;19;20419;-48
2022/02/22 05:57:26;;;;;;;20.70;3.00;;;;;;;2.69;100.00;99998.59;7393833;19;20735;-52
2022/02/22 05:59:58;;;;;;;20.93;3.43;;;;;;;2.75;100.00;100004.06;7396717;19;20378;-52
2022/02/22 06:02:27;;;;;;;28.27;4.00;;;;;;;2.81;100.00;100009.53;7393351;19;20421;-53
2022/02/22 06:04:57;;;;;;;22.43;4.10;;;;;;;2.87;100.00;100013.25;7395296;19;20479;-51
2022/02/22 06:07:28;;;;;;;39.27;4.20;;;;;;;2.95;100.00;100022.22;7392320;19;20415;-50
2022/02/22 06:09:57;;;;;;;29.97;4.17;;;;;;;3.04;100.00;100024.47;7396333;19;20406;-50
2022/02/22 06:12:26;;;;;;;118.43;38.93;;;;;;;3.03;100.00;100022.69;7390692;19;20411;-49
2022/02/22 06:14:59;;;;;;;32.80;4.20;;;;;;;2.94;100.00;100045.97;7395035;19;20831;-48
2022/02/22 06:17:28;;;;;;;24.03;4.87;;;;;;;2.95;100.00;100052.81;7393550;19;20414;-52
2022/02/22 06:19:59;;;;;;;25.40;5.10;;;;;;;2.94;100.00;100054.50;7396077;19;20388;-52
2022/02/22 06:22:29;;;;;;;22.03;3.73;;;;;;;2.89;100.00;100052.44;7392402;19;20458;-50
2022/02/22 06:24:58;;;;;;;31.53;5.10;;;;;;;2.88;100.00;100065.97;7394547;19;20761;-52
2022/02/22 06:27:28;;;;;;;27.43;4.37;;;;;;;2.90;100.00;100070.38;7392073;19;20415;-50
2022/02/22 06:30:00;;;;;;;28.40;4.33;;;;;;;2.91;100.00;100076.34;7395521;19;20394;-51
2022/02/22 06:32:29;;;;;;;20.37;3.70;;;;;;;2.93;100.00;100077.34;7390196;19;20756;-49
2022/02/22 06:34:59;;;;;;;22.70;3.80;;;;;;;2.89;100.00;100083.00;7394232;19;20491;-51
2022/02/22 06:37:28;;;;;;;30.40;3.73;;;;;;;2.87;100.00;100079.50;7390042;19;20413;-53
2022/02/22 06:39:58;;;;;;;27.77;4.40;;;;;;;2.89;100.00;100083.00;7393515;19;20394;-49
2022/02/22 06:42:28;;;;;;;33.07;4.80;;;;;;;2.88;100.00;100089.81;7391520;19;20419;-49
2022/02/22 06:45:00;;;;;;;27.73;4.57;;;;;;;2.87;100.00;100100.75;7394003;19;20423;-50
2022/02/22 06:47:30;;;;;;;26.20;3.27;;;;;;;2.89;100.00;100101.75;7391085;19;20411;-48
2022/02/22 06:49:59;;;;;;;21.27;4.60;;;;;;;2.90;100.00;100100.97;7394736;19;20451;-51
2022/02/22 06:52:34;;;;;;;20.80;3.70;;;;;;;2.97;100.00;100118.38;7391978;19;20435;-49
2022/02/22 06:55:05;;;;;;;35.87;5.13;;;;;;;2.97;100.00;100127.69;7394083;19;20922;-51
2022/02/22 06:57:35;;;;;;;27.50;3.93;;;;;;;2.97;100.00;100137.88;7391541;19;20417;-50
2022/02/22 07:00:09;;;;;;;28.67;4.90;;;;;;;3.01;100.00;100144.94;7394627;19;20386;-50
2022/02/22 07:02:39;;;;;;;16.20;3.63;;;;;;;3.05;100.00;100158.75;7390765;19;20414;-53
2022/02/22 07:05:10;;;;;;;29.63;4.40;;;;;;;3.08;100.00;100161.53;7393329;19;20423;-52
2022/02/22 07:07:45;;;;;;;29.03;4.87;;;;;;;3.10;100.00;100165.03;7391288;19;20435;-51
2022/02/22 07:10:15;;;;;;;20.90;4.03;;;;;;;3.16;100.00;100190.03;7394417;19;20402;-49
2022/02/22 07:12:45;;;;;;;18.10;3.97;;;;;;;3.27;100.00;100190.72;7386673;19;20422;-51
2022/02/22 07:15:17;;;;;;;27.67;6.77;;;;;;;3.45;100.00;100196.06;7392896;19;20416;-53
2022/02/22 07:17:48;;;;;;;32.67;5.33;;;;;;;3.43;100.00;100197.63;7390329;19;20415;-49
2022/02/22 07:20:18;;;;;;;20.37;3.97;;;;;;;3.42;100.00;100203.50;7393980;19;20905;-50
2022/02/22 07:22:48;;;;;;;42.17;8.83;;;;;;;3.50;100.00;100209.97;7388182;19;20925;-51
2022/02/22 07:25:20;;;;;;;26.43;3.60;;;;;;;3.48;100.00;100214.09;7397196;19;20769;-53
2022/02/22 07:27:50;;;;;;;36.87;6.10;;;;;;;3.68;100.00;100217.00;7389093;19;20971;-54
2022/02/22 07:30:22;;;;;;;26.07;5.13;;;;;;;3.54;100.00;100228.91;7393728;19;20808;-54
2022/02/22 07:32:53;;;;;;;36.50;5.30;;;;;;;3.57;100.00;100219.75;7390365;19;20419;-50
2022/02/22 07:35:23;;;;;;;23.63;4.50;;;;;;;3.56;100.00;100247.72;7394014;19;20406;-52
2022/02/22 07:37:52;;;;;;;32.93;3.90;;;;;;;3.48;100.00;100249.78;7385582;19;20442;-51
2022/02/22 07:40:23;;;;;;;22.50;4.47;;;;;;;3.53;100.00;100258.63;7395979;19;20724;-52
2022/02/22 07:42:59;;;;;;;34.50;4.70;;;;;;;3.54;100.00;100267.16;7388695;19;20410;-49
2022/02/22 07:45:32;;;;;;;25.93;4.47;;;;;;;3.56;100.00;100268.13;7395318;19;20392;-50
2022/02/22 07:48:02;;;;;;;27.87;4.13;;;;;;;3.57;100.00;100281.00;7388981;19;20494;-54
2022/02/22 07:50:32;;;;;;;25.00;4.43;;;;;;;3.55;100.00;100280.03;7394719;19;20391;-50
2022/02/22 07:53:01;;;;;;;26.87;4.03;;;;;;;3.55;100.00;100282.59;7389438;19;20413;-49
2022/02/22 07:55:31;;;;;;;22.63;2.70;;;;;;;3.49;100.00;100289.84;7393006;19;20383;-49
2022/02/22 07:58:00;;;;;;;30.37;4.07;;;;;;;3.51;100.00;100283.16;7388633;19;20425;-50
2022/02/22 08:00:32;;;;;;;22.17;2.97;;;;;;;3.49;100.00;100294.94;7392386;19;20388;-51
2022/02/22 08:03:02;;;;;;;24.53;3.93;;;;;;;3.49;100.00;100303.47;7388979;19;20402;-50
2022/02/22 08:05:32;;;;;;;20.03;3.13;;;;;;;3.48;100.00;100306.81;7392681;19;20387;-49
2022/02/22 08:08:03;;;;;;;23.03;3.90;;;;;;;3.51;100.00;100304.47;7388869;19;20394;-51
2022/02/22 08:10:35;;;;;;;27.87;3.90;;;;;;;3.54;100.00;100308.00;7390679;19;20456;-53
2022/02/22 08:13:05;;;;;;;25.67;4.20;;;;;;;3.54;100.00;100321.59;7388280;19;20471;-50
2022/02/22 08:15:37;;;;;;;21.07;2.87;;;;;;;3.54;100.00;100315.63;7393928;19;20417;-53
2022/02/22 08:18:07;;;;;;;30.53;4.40;;;;;;;3.56;100.00;100319.16;7388303;19;20539;-49
2022/02/22 08:20:37;;;;;;;25.83;3.70;;;;;;;3.59;100.00;100325.34;7392357;19;20902;-52
2022/02/22 08:23:06;;;;;;;30.30;3.80;;;;;;;3.62;100.00;100330.66;7386436;19;20415;-51
2022/02/22 08:25:36;;;;;;;25.43;3.17;;;;;;;3.67;100.00;100337.69;7393884;19;20406;-53
2022/02/22 08:28:11;;;;;;;20.70;3.20;;;;;;;3.70;100.00;100328.56;7390040;19;20495;-50
2022/02/22 08:30:43;;;;;;;24.00;4.40;;;;;;;3.71;100.00;100324.34;7392494;19;20613;-50
2022/02/22 08:33:13;;;;;;;19.60;3.50;;;;;;;3.74;100.00;100334.75;7388230;19;20412;-49
2022/02/22 08:35:44;;;;;;;32.17;4.50;;;;;;;3.74;100.00;100322.88;7392094;19;20379;-49
2022/02/22 08:38:13;;;;;;;19.47;4.60;;;;;;;3.75;100.00;100327.19;7389352;19;20786;-48
2022/02/22 08:40:44;;;;;;;17.70;3.50;;;;;;;3.83;100.00;100329.31;7392937;19;20399;-52
2022/02/22 08:43:14;;;;;;;26.50;4.03;;;;;;;3.94;100.00;100337.66;7385074;19;20407;-50
2022/02/22 08:45:48;;;;;;;28.97;5.80;;;;;;;4.01;100.00;100344.91;7391452;19;20398;-48
2022/02/22 08:48:18;;;;;;;32.03;4.40;;;;;;;4.05;100.00;100346.84;7391391;19;20431;-48
2022/02/22 08:50:50;;;;;;;26.67;3.20;;;;;;;4.19;100.00;100340.03;7395057;19;20396;-50
2022/02/22 08:53:20;;;;;;;31.07;4.60;;;;;;;4.36;100.00;100358.94;7387448;19;20438;-53
2022/02/22 08:55:49;;;;;;;32.63;4.97;;;;;;;4.23;100.00;100381.97;7391471;19;20409;-49
2022/02/22 08:58:19;;;;;;;16.47;2.97;;;;;;;4.28;100.00;100385.69;7387661;19;20438;-51
2022/02/22 09:00:51;;;;;;;23.70;3.80;;;;;;;4.29;100.00;100398.56;7391836;19;20467;-52
2022/02/22 09:03:21;;;;;;;20.70;3.60;;;;;;;4.27;100.00;100419.69;7392486;19;20745;-51
2022/02/22 09:05:50;;;;;;;19.10;3.33;;;;;;;4.26;100.00;100423.03;7399048;19;20420;-54
2022/02/22 09:08:20;;;;;;;30.23;3.90;;;;;;;4.33;100.00;100430.28;7386941;19;20438;-52
2022/02/22 09:10:50;;;;;;;25.00;3.83;;;;;;;4.46;100.00;100435.34;7399396;19;20391;-52
2022/02/22 09:13:20;;;;;;;28.50;3.50;;;;;;;4.64;100.00;100427.06;7390715;19;20434;-55
2022/02/22 09:15:53;;;;;;;22.10;3.60;;;;;;;4.60;100.00;100450.66;7399790;19;20404;-51
2022/02/22 09:18:23;;;;;;;31.30;4.23;;;;;;;4.56;100.00;100467.47;7388411;19;20763;-49
2022/02/22 09:20:52;;;;;;;23.20;3.53;;;;;;;4.59;100.00;100484.66;7397939;19;20380;-51
2022/02/22 09:23:22;;;;;;;22.63;3.57;;;;;;;4.65;100.00;100489.25;7394213;19;20423;-52
2022/02/22 09:25:52;;;;;;;26.20;4.60;;;;;;;4.69;100.00;100493.78;7398267;19;20384;-51
2022/02/22 09:28:22;;;;;;;23.60;4.17;;;;;;;4.72;100.00;100506.75;7394178;19;20981;-51
2022/02/22 09:30:54;;;;;;;17.33;1.30;;;;;;;4.65;100.00;100510.59;7397598;19;20375;-49
2022/02/22 09:33:24;;;;;;;16.20;2.83;;;;;;;4.72;100.00;100522.97;7385691;19;20434;-50
2022/02/22 09:35:56;;;;;;;19.70;2.60;;;;;;;4.60;100.00;100537.53;7397897;19;20392;-50
2022/02/22 09:38:26;;;;;;;15.40;2.57;;;;;;;4.68;100.00;100544.00;7393755;19;20519;-49
2022/02/22 09:40:57;;;;;;;14.93;2.07;;;;;;;4.77;100.00;100536.00;7397912;19;21066;-49
2022/02/22 09:43:26;;;;;;;30.43;4.60;;;;;;;4.84;100.00;100547.53;7392985;19;20419;-53
2022/02/22 09:45:59;;;;;;;19.33;2.07;;;;;;;4.83;100.00;100545.75;7401652;19;20466;-51
2022/02/22 09:48:29;;;;;;;9.33;2.33;;;;;;;4.86;100.00;100540.81;7393191;19;20963;-49
2022/02/22 09:50:58;;;;;;;20.97;2.80;;;;;;;4.90;100.00;100537.66;7400874;19;20398;-50
2022/02/22 09:53:28;;;;;;;39.97;8.47;;;;;;;4.83;100.00;100546.63;7381610;19;20438;-53
2022/02/22 09:55:58;;;;;;;49.43;13.03;;;;;;;4.99;100.00;100535.66;7397381;19;20396;-50
2022/02/22 09:58:28;;;;;;;54.07;13.83;;;;;;;4.97;100.00;100542.38;7388881;19;20408;-49
2022/02/22 10:01:04;;;;;;;16.20;3.53;;;;;;;4.93;100.00;100563.41;7396688;19;20400;-53
2022/02/22 10:03:34;;;;;;;10.90;2.10;;;;;;;5.04;100.00;100566.66;7391405;19;20462;-49
2022/02/22 10:06:05;;;;;;;23.93;5.73;;;;;;;4.90;100.00;100567.44;7400714;19;20483;-48
2022/02/22 10:08:39;;;;;;;40.17;8.73;;;;;;;5.07;100.00;100571.06;7388633;19;20467;-48
2022/02/22 10:11:10;;;;;;;19.90;5.93;;;;;;;4.98;100.00;100567.13;7400422;19;20775;-48
2022/02/22 10:13:40;;;;;;;40.43;11.50;;;;;;;4.88;100.00;100577.59;7393920;19;20454;-49
2022/02/22 10:16:14;;;;;;;57.03;15.20;;;;;;;5.06;100.00;100579.50;7399744;19;20416;-54
2022/02/22 10:18:50;;;;;;;20.30;3.13;;;;;;;5.06;100.00;100584.63;7388873;19;20973;-49
2022/02/22 10:21:24;;;;;;;24.73;4.87;;;;;;;5.09;100.00;100574.59;7400366;19;20391;-51
2022/02/22 10:23:54;;;;;;;29.00;7.13;;;;;;;5.06;100.00;100579.50;7390592;19;20509;-48
2022/02/22 10:26:26;;;;;;;20.00;4.17;;;;;;;4.97;100.00;100598.63;7399208;19;20447;-51
2022/02/22 10:28:57;;;;;;;34.87;7.40;;;;;;;5.15;100.00;100585.19;7391772;19;20960;-52
2022/02/22 10:31:35;;;;;;;23.47;3.77;;;;;;;5.23;100.00;100580.56;7396896;19;20406;-48
2022/02/22 10:34:05;;;;;;;33.50;8.90;;;;;;;5.30;100.00;100592.03;7393900;19;20866;-48
2022/02/22 10:36:52;;;;;;;40.70;10.80;;;;;;;5.44;100.00;100591.16;7396232;19;20396;-52
2022/02/22 10:39:22;;;;;;;19.87;4.37;;;;;;;5.43;100.00;100591.97;7393480;19;20426;-52
2022/02/22 10:41:55;;;;;;;22.00;4.97;;;;;;;5.34;100.00;100594.00;7392565;19;20394;-53
2022/02/22 10:44:29;;;;;;;18.17;4.20;;;;;;;5.31;100.00;100621.94;7393960;19;20832;-52
2022/02/22 10:47:03;;;;;;;26.03;8.00;;;;;;;5.30;100.00;100599.69;7392895;19;20467;-48
2022/02/22 10:49:34;;;;;;;31.03;7.60;;;;;;;5.42;100.00;100592.78;7395216;19;20404;-53
2022/02/22 10:52:08;;;;;;;20.70;3.23;;;;;;;5.53;100.00;100591.75;7389019;19;20806;-51
2022/02/22 10:54:41;;;;;;;15.23;2.53;;;;;;;5.57;100.00;100586.78;7396442;19;20431;-49
2022/02/22 10:57:12;;;;;;;28.37;6.80;;;;;;;5.45;100.00;100590.41;7390959;19;20367;-53
2022/02/22 10:59:41;;;;;;;25.67;2.93;;;;;;;5.40;100.00;100576.44;7393976;19;20451;-52
2022/02/22 11:02:14;;;;;;;75.83;16.93;;;;;;;5.39;100.00;100560.19;7390250;19;20417;-54
2022/02/22 11:04:44;;;;;;;19.80;4.83;;;;;;;5.25;100.00;100563.63;7393331;19;20436;-50
2022/02/22 11:07:18;;;;;;;56.13;9.83;;;;;;;5.12;100.00;100551.75;7386587;19;20408;-50
2022/02/22 11:09:50;;;;;;;24.33;4.57;;;;;;;5.14;100.00;100525.47;7394373;19;20418;-51
2022/02/22 11:12:25;;;;;;;11.77;2.87;;;;;;;5.14;100.00;100528.03;7390777;19;20420;-51
2022/02/22 11:15:06;;;;;;;14.97;3.40;;;;;;;5.09;100.00;100537.09;7392708;19;20811;-48
2022/02/22 11:17:54;;;;;;;16.90;3.83;;;;;;;5.10;100.00;100520.09;7390877;19;20412;-49
2022/02/22 11:20:31;;;;;;;14.80;3.20;;;;;;;5.02;100.00;100521.31;7394211;19;20388;-52
2022/02/22 11:23:03;;;;;;;50.50;10.57;;;;;;;5.23;100.00;100511.50;7390502;19;20454;-54
2022/02/22 11:25:35;;;;;;;13.90;2.27;;;;;;;5.09;100.00;100521.75;7392339;19;20388;-51
2022/02/22 11:28:07;;;;;;;23.50;4.80;;;;;;;5.10;100.00;100530.31;7389975;19;20458;-52
2022/02/22 11:30:40;;;;;;;54.90;10.70;;;;;;;5.09;100.00;100533.69;7395724;19;20391;-50
2022/02/22 11:33:15;;;;;;;26.90;5.70;;;;;;;5.12;100.00;100519.41;7389891;19;20439;-51
2022/02/22 11:35:51;;;;;;;32.60;5.90;;;;;;;5.08;100.00;100527.66;7393731;19;20727;-51